sensor_id;sensor_type;location;lat;lon;timestamp;P1;durP1;ratioP1;P2;durP2;ratioP2
13566;SDS011;6855;48.112;11.298;2022-09-09T00:00:40;1.40;;;1.30;;
13566;SDS011;6855;48.112;11.298;2022-09-09T00:03:10;1.43;;;1.07;;
13566;SDS011;6855;48.112;11.298;2022-09-09T00:05:40;1.60;;;1.40;;
13566;SDS011;6855;48.112;11.298;2022-09-09T00:08:14;1.10;;;1.00;;
13566;SDS011;6855;48.112;11.298;2022-09-09T00:10:45;5.03;;;1.63;;
13566;SDS011;6855;48.112;11.298;2022-09-09T00:13:18;3.07;;;1.40;;
13566;SDS011;6855;48.112;11.298;2022-09-09T00:15:48;3.63;;;1.60;;
13566;SDS011;6855;48.112;11.298;2022-09-09T00:18:21;2.00;;;1.27;;
13566;SDS011;6855;48.112;11.298;2022-09-09T00:20:52;2.27;;;1.20;;
13566;SDS011;6855;48.112;11.298;2022-09-09T00:23:25;10.30;;;1.33;;
13566;SDS011;6855;48.112;11.298;2022-09-09T00:25:58;2.20;;;1.10;;
13566;SDS011;6855;48.112;11.298;2022-09-09T00:28:27;1.57;;;1.40;;
13566;SDS011;6855;48.112;11.298;2022-09-09T00:33:26;3.90;;;1.40;;
13566;SDS011;6855;48.112;11.298;2022-09-09T00:35:54;4.53;;;1.30;;
13566;SDS011;6855;48.112;11.298;2022-09-09T00:38:25;1.27;;;1.17;;
13566;SDS011;6855;48.112;11.298;2022-09-09T00:40:55;1.67;;;1.23;;
13566;SDS011;6855;48.112;11.298;2022-09-09T00:43:26;3.27;;;1.30;;
13566;SDS011;6855;48.112;11.298;2022-09-09T00:46:00;6.50;;;1.87;;
13566;SDS011;6855;48.112;11.298;2022-09-09T00:48:34;6.80;;;1.40;;
13566;SDS011;6855;48.112;11.298;2022-09-09T00:51:05;5.17;;;1.43;;
13566;SDS011;6855;48.112;11.298;2022-09-09T00:53:38;2.20;;;1.10;;
13566;SDS011;6855;48.112;11.298;2022-09-09T00:56:09;3.43;;;1.50;;
13566;SDS011;6855;48.112;11.298;2022-09-09T00:58:39;4.17;;;1.70;;
13566;SDS011;6855;48.112;11.298;2022-09-09T01:01:08;2.97;;;1.03;;
13566;SDS011;6855;48.112;11.298;2022-09-09T01:03:37;3.13;;;1.10;;
13566;SDS011;6855;48.112;11.298;2022-09-09T01:06:11;3.37;;;1.10;;
13566;SDS011;6855;48.112;11.298;2022-09-09T01:08:43;1.90;;;1.10;;
13566;SDS011;6855;48.112;11.298;2022-09-09T01:11:17;2.23;;;1.00;;
13566;SDS011;6855;48.112;11.298;2022-09-09T01:13:47;1.33;;;1.03;;
13566;SDS011;6855;48.112;11.298;2022-09-09T01:16:16;1.20;;;0.80;;
13566;SDS011;6855;48.112;11.298;2022-09-09T01:18:44;7.30;;;1.10;;
13566;SDS011;6855;48.112;11.298;2022-09-09T01:21:15;1.90;;;1.17;;
13566;SDS011;6855;48.112;11.298;2022-09-09T01:24:01;4.00;;;1.17;;
13566;SDS011;6855;48.112;11.298;2022-09-09T01:26:33;4.63;;;1.10;;
13566;SDS011;6855;48.112;11.298;2022-09-09T01:29:01;6.40;;;1.30;;
13566;SDS011;6855;48.112;11.298;2022-09-09T01:31:29;3.17;;;0.90;;
13566;SDS011;6855;48.112;11.298;2022-09-09T01:33:58;2.50;;;1.13;;
13566;SDS011;6855;48.112;11.298;2022-09-09T01:36:27;1.57;;;1.17;;
13566;SDS011;6855;48.112;11.298;2022-09-09T01:38:56;6.83;;;1.10;;
13566;SDS011;6855;48.112;11.298;2022-09-09T01:41:23;1.53;;;0.93;;
13566;SDS011;6855;48.112;11.298;2022-09-09T01:43:52;1.37;;;1.00;;
13566;SDS011;6855;48.112;11.298;2022-09-09T01:46:19;4.03;;;1.03;;
13566;SDS011;6855;48.112;11.298;2022-09-09T01:48:48;1.63;;;1.00;;
13566;SDS011;6855;48.112;11.298;2022-09-09T01:51:16;2.27;;;0.93;;
13566;SDS011;6855;48.112;11.298;2022-09-09T01:53:43;2.03;;;1.00;;
13566;SDS011;6855;48.112;11.298;2022-09-09T01:56:15;1.83;;;1.03;;
13566;SDS011;6855;48.112;11.298;2022-09-09T01:58:50;2.00;;;1.00;;
13566;SDS011;6855;48.112;11.298;2022-09-09T02:01:24;6.00;;;1.13;;
13566;SDS011;6855;48.112;11.298;2022-09-09T02:03:55;1.47;;;0.90;;
13566;SDS011;6855;48.112;11.298;2022-09-09T02:06:25;1.77;;;0.80;;
13566;SDS011;6855;48.112;11.298;2022-09-09T02:08:55;1.63;;;1.20;;
13566;SDS011;6855;48.112;11.298;2022-09-09T02:11:25;2.00;;;1.03;;
13566;SDS011;6855;48.112;11.298;2022-09-09T02:13:53;3.00;;;1.10;;
13566;SDS011;6855;48.112;11.298;2022-09-09T02:16:22;1.53;;;0.90;;
13566;SDS011;6855;48.112;11.298;2022-09-09T02:18:53;1.30;;;1.20;;
13566;SDS011;6855;48.112;11.298;2022-09-09T02:21:22;1.70;;;0.90;;
13566;SDS011;6855;48.112;11.298;2022-09-09T02:23:50;1.30;;;0.97;;
13566;SDS011;6855;48.112;11.298;2022-09-09T02:26:21;2.40;;;0.93;;
13566;SDS011;6855;48.112;11.298;2022-09-09T02:28:49;1.67;;;0.77;;
13566;SDS011;6855;48.112;11.298;2022-09-09T02:31:17;6.70;;;1.00;;
13566;SDS011;6855;48.112;11.298;2022-09-09T02:33:47;1.77;;;1.00;;
13566;SDS011;6855;48.112;11.298;2022-09-09T02:36:19;2.60;;;0.90;;
13566;SDS011;6855;48.112;11.298;2022-09-09T02:38:49;3.30;;;1.10;;
13566;SDS011;6855;48.112;11.298;2022-09-09T02:41:19;2.70;;;1.00;;
13566;SDS011;6855;48.112;11.298;2022-09-09T02:43:47;2.30;;;0.93;;
13566;SDS011;6855;48.112;11.298;2022-09-09T02:46:19;3.80;;;0.97;;
13566;SDS011;6855;48.112;11.298;2022-09-09T02:48:51;3.70;;;1.10;;
13566;SDS011;6855;48.112;11.298;2022-09-09T02:51:22;1.20;;;0.93;;
13566;SDS011;6855;48.112;11.298;2022-09-09T02:53:53;2.60;;;0.97;;
13566;SDS011;6855;48.112;11.298;2022-09-09T02:56:25;2.93;;;0.90;;
13566;SDS011;6855;48.112;11.298;2022-09-09T02:58:53;2.73;;;0.80;;
13566;SDS011;6855;48.112;11.298;2022-09-09T03:01:20;4.73;;;1.00;;
13566;SDS011;6855;48.112;11.298;2022-09-09T03:03:48;2.30;;;1.30;;
13566;SDS011;6855;48.112;11.298;2022-09-09T03:06:15;2.73;;;1.30;;
13566;SDS011;6855;48.112;11.298;2022-09-09T03:08:43;2.03;;;0.90;;
13566;SDS011;6855;48.112;11.298;2022-09-09T03:11:11;2.20;;;1.10;;
13566;SDS011;6855;48.112;11.298;2022-09-09T03:13:39;3.23;;;0.90;;
13566;SDS011;6855;48.112;11.298;2022-09-09T03:16:06;4.17;;;0.97;;
13566;SDS011;6855;48.112;11.298;2022-09-09T03:18:33;2.20;;;1.03;;
13566;SDS011;6855;48.112;11.298;2022-09-09T03:21:00;2.50;;;1.00;;
13566;SDS011;6855;48.112;11.298;2022-09-09T03:23:27;1.40;;;0.87;;
13566;SDS011;6855;48.112;11.298;2022-09-09T03:25:56;5.30;;;1.10;;
13566;SDS011;6855;48.112;11.298;2022-09-09T03:28:23;1.97;;;1.17;;
13566;SDS011;6855;48.112;11.298;2022-09-09T03:30:57;4.30;;;1.17;;
13566;SDS011;6855;48.112;11.298;2022-09-09T03:33:25;1.80;;;1.07;;
13566;SDS011;6855;48.112;11.298;2022-09-09T03:35:52;3.17;;;0.90;;
13566;SDS011;6855;48.112;11.298;2022-09-09T03:38:21;0.80;;;0.80;;
13566;SDS011;6855;48.112;11.298;2022-09-09T03:40:49;1.60;;;1.40;;
13566;SDS011;6855;48.112;11.298;2022-09-09T03:43:21;2.13;;;1.20;;
13566;SDS011;6855;48.112;11.298;2022-09-09T03:45:48;1.80;;;1.27;;
13566;SDS011;6855;48.112;11.298;2022-09-09T03:48:16;1.20;;;1.07;;
13566;SDS011;6855;48.112;11.298;2022-09-09T03:50:46;3.20;;;1.47;;
13566;SDS011;6855;48.112;11.298;2022-09-09T03:53:14;2.80;;;1.40;;
13566;SDS011;6855;48.112;11.298;2022-09-09T03:55:43;2.53;;;1.30;;
13566;SDS011;6855;48.112;11.298;2022-09-09T03:58:10;2.13;;;1.40;;
13566;SDS011;6855;48.112;11.298;2022-09-09T04:00:39;1.20;;;0.90;;
13566;SDS011;6855;48.112;11.298;2022-09-09T04:03:07;4.80;;;1.50;;
13566;SDS011;6855;48.112;11.298;2022-09-09T04:05:34;0.90;;;0.90;;
13566;SDS011;6855;48.112;11.298;2022-09-09T04:08:04;4.10;;;1.90;;
13566;SDS011;6855;48.112;11.298;2022-09-09T04:10:31;2.53;;;1.30;;
13566;SDS011;6855;48.112;11.298;2022-09-09T04:12:59;4.93;;;1.43;;
13566;SDS011;6855;48.112;11.298;2022-09-09T04:15:26;3.00;;;1.17;;
13566;SDS011;6855;48.112;11.298;2022-09-09T04:17:55;3.13;;;1.13;;
13566;SDS011;6855;48.112;11.298;2022-09-09T04:20:22;1.30;;;1.13;;
13566;SDS011;6855;48.112;11.298;2022-09-09T04:22:49;1.20;;;1.00;;
13566;SDS011;6855;48.112;11.298;2022-09-09T04:25:16;1.90;;;1.70;;
13566;SDS011;6855;48.112;11.298;2022-09-09T04:27:44;2.40;;;1.40;;
13566;SDS011;6855;48.112;11.298;2022-09-09T04:30:12;3.57;;;1.60;;
13566;SDS011;6855;48.112;11.298;2022-09-09T04:32:39;1.30;;;1.00;;
13566;SDS011;6855;48.112;11.298;2022-09-09T04:35:08;3.03;;;1.67;;
13566;SDS011;6855;48.112;11.298;2022-09-09T04:37:35;1.47;;;1.10;;
13566;SDS011;6855;48.112;11.298;2022-09-09T04:40:02;2.07;;;1.20;;
13566;SDS011;6855;48.112;11.298;2022-09-09T04:42:30;2.07;;;1.07;;
13566;SDS011;6855;48.112;11.298;2022-09-09T04:44:57;1.63;;;1.30;;
13566;SDS011;6855;48.112;11.298;2022-09-09T04:47:24;4.70;;;1.23;;
13566;SDS011;6855;48.112;11.298;2022-09-09T04:49:51;6.37;;;1.20;;
13566;SDS011;6855;48.112;11.298;2022-09-09T04:52:20;1.27;;;1.03;;
13566;SDS011;6855;48.112;11.298;2022-09-09T04:54:48;1.43;;;1.13;;
13566;SDS011;6855;48.112;11.298;2022-09-09T04:57:15;2.60;;;1.10;;
13566;SDS011;6855;48.112;11.298;2022-09-09T04:59:42;1.67;;;1.30;;
13566;SDS011;6855;48.112;11.298;2022-09-09T05:02:09;4.67;;;1.30;;
13566;SDS011;6855;48.112;11.298;2022-09-09T05:04:36;2.85;;;1.48;;
13566;SDS011;6855;48.112;11.298;2022-09-09T05:07:03;4.97;;;1.38;;
13566;SDS011;6855;48.112;11.298;2022-09-09T05:09:33;3.53;;;2.03;;
13566;SDS011;6855;48.112;11.298;2022-09-09T05:12:00;3.23;;;1.47;;
13566;SDS011;6855;48.112;11.298;2022-09-09T05:14:27;4.40;;;2.03;;
13566;SDS011;6855;48.112;11.298;2022-09-09T05:16:55;7.30;;;1.93;;
13566;SDS011;6855;48.112;11.298;2022-09-09T05:19:23;11.93;;;2.47;;
13566;SDS011;6855;48.112;11.298;2022-09-09T05:21:50;12.60;;;2.60;;
13566;SDS011;6855;48.112;11.298;2022-09-09T05:24:17;16.37;;;3.00;;
13566;SDS011;6855;48.112;11.298;2022-09-09T05:26:45;7.93;;;2.80;;
13566;SDS011;6855;48.112;11.298;2022-09-09T05:29:13;10.70;;;3.00;;
13566;SDS011;6855;48.112;11.298;2022-09-09T05:31:44;11.83;;;3.33;;
13566;SDS011;6855;48.112;11.298;2022-09-09T05:34:12;10.43;;;2.80;;
13566;SDS011;6855;48.112;11.298;2022-09-09T05:36:39;13.47;;;3.10;;
13566;SDS011;6855;48.112;11.298;2022-09-09T05:39:06;8.20;;;2.47;;
13566;SDS011;6855;48.112;11.298;2022-09-09T05:41:33;9.00;;;2.93;;
13566;SDS011;6855;48.112;11.298;2022-09-09T05:44:03;8.97;;;2.90;;
13566;SDS011;6855;48.112;11.298;2022-09-09T05:46:31;9.03;;;3.37;;
13566;SDS011;6855;48.112;11.298;2022-09-09T05:48:58;9.97;;;2.90;;
13566;SDS011;6855;48.112;11.298;2022-09-09T05:51:26;8.53;;;3.10;;
13566;SDS011;6855;48.112;11.298;2022-09-09T05:53:55;8.90;;;2.70;;
13566;SDS011;6855;48.112;11.298;2022-09-09T05:56:23;18.17;;;2.93;;
13566;SDS011;6855;48.112;11.298;2022-09-09T05:58:51;13.10;;;2.30;;
13566;SDS011;6855;48.112;11.298;2022-09-09T06:01:21;6.47;;;2.60;;
13566;SDS011;6855;48.112;11.298;2022-09-09T06:03:49;7.57;;;2.07;;
13566;SDS011;6855;48.112;11.298;2022-09-09T06:06:17;5.10;;;2.20;;
13566;SDS011;6855;48.112;11.298;2022-09-09T06:08:45;8.50;;;2.70;;
13566;SDS011;6855;48.112;11.298;2022-09-09T06:11:14;5.83;;;2.40;;
13566;SDS011;6855;48.112;11.298;2022-09-09T06:13:42;2.40;;;1.40;;
13566;SDS011;6855;48.112;11.298;2022-09-09T06:16:09;7.60;;;1.80;;
13566;SDS011;6855;48.112;11.298;2022-09-09T06:18:38;4.33;;;1.50;;
13566;SDS011;6855;48.112;11.298;2022-09-09T06:21:06;3.63;;;1.40;;
13566;SDS011;6855;48.112;11.298;2022-09-09T06:23:34;7.47;;;1.87;;
13566;SDS011;6855;48.112;11.298;2022-09-09T06:26:02;4.17;;;1.47;;
13566;SDS011;6855;48.112;11.298;2022-09-09T06:28:30;6.53;;;1.40;;
13566;SDS011;6855;48.112;11.298;2022-09-09T06:31:00;3.60;;;1.23;;
13566;SDS011;6855;48.112;11.298;2022-09-09T06:33:30;2.77;;;1.33;;
13566;SDS011;6855;48.112;11.298;2022-09-09T06:36:01;3.10;;;1.40;;
13566;SDS011;6855;48.112;11.298;2022-09-09T06:38:30;8.20;;;1.57;;
13566;SDS011;6855;48.112;11.298;2022-09-09T06:40:58;2.40;;;1.33;;
13566;SDS011;6855;48.112;11.298;2022-09-09T06:43:25;3.80;;;1.60;;
13566;SDS011;6855;48.112;11.298;2022-09-09T06:45:53;2.00;;;1.03;;
13566;SDS011;6855;48.112;11.298;2022-09-09T06:48:21;2.30;;;1.10;;
13566;SDS011;6855;48.112;11.298;2022-09-09T06:50:48;4.33;;;1.37;;
13566;SDS011;6855;48.112;11.298;2022-09-09T06:53:17;6.20;;;2.10;;
13566;SDS011;6855;48.112;11.298;2022-09-09T06:55:45;3.03;;;1.23;;
13566;SDS011;6855;48.112;11.298;2022-09-09T06:58:13;8.53;;;1.43;;
13566;SDS011;6855;48.112;11.298;2022-09-09T07:00:40;6.00;;;1.00;;
13566;SDS011;6855;48.112;11.298;2022-09-09T07:03:07;1.00;;;0.90;;
13566;SDS011;6855;48.112;11.298;2022-09-09T07:05:43;3.97;;;1.00;;
13566;SDS011;6855;48.112;11.298;2022-09-09T07:08:10;1.80;;;1.00;;
13566;SDS011;6855;48.112;11.298;2022-09-09T07:10:39;1.53;;;0.80;;
13566;SDS011;6855;48.112;11.298;2022-09-09T07:13:06;1.73;;;1.00;;
13566;SDS011;6855;48.112;11.298;2022-09-09T07:15:34;1.57;;;0.97;;
13566;SDS011;6855;48.112;11.298;2022-09-09T07:18:01;2.67;;;1.27;;
13566;SDS011;6855;48.112;11.298;2022-09-09T07:20:28;2.50;;;1.10;;
13566;SDS011;6855;48.112;11.298;2022-09-09T07:22:55;2.90;;;1.10;;
13566;SDS011;6855;48.112;11.298;2022-09-09T07:25:23;2.93;;;0.93;;
13566;SDS011;6855;48.112;11.298;2022-09-09T07:27:53;1.10;;;1.00;;
13566;SDS011;6855;48.112;11.298;2022-09-09T07:30:20;3.83;;;0.93;;
13566;SDS011;6855;48.112;11.298;2022-09-09T07:32:47;1.70;;;1.20;;
13566;SDS011;6855;48.112;11.298;2022-09-09T07:35:17;1.83;;;0.80;;
13566;SDS011;6855;48.112;11.298;2022-09-09T07:37:45;1.40;;;0.97;;
13566;SDS011;6855;48.112;11.298;2022-09-09T07:40:12;1.00;;;0.90;;
13566;SDS011;6855;48.112;11.298;2022-09-09T07:42:40;2.43;;;0.90;;
13566;SDS011;6855;48.112;11.298;2022-09-09T07:45:08;2.03;;;1.10;;
13566;SDS011;6855;48.112;11.298;2022-09-09T07:47:35;1.23;;;0.90;;
13566;SDS011;6855;48.112;11.298;2022-09-09T07:50:03;1.27;;;1.10;;
13566;SDS011;6855;48.112;11.298;2022-09-09T07:52:30;2.17;;;1.10;;
13566;SDS011;6855;48.112;11.298;2022-09-09T07:54:57;4.03;;;1.10;;
13566;SDS011;6855;48.112;11.298;2022-09-09T07:57:25;6.60;;;1.27;;
13566;SDS011;6855;48.112;11.298;2022-09-09T07:59:52;3.33;;;1.13;;
13566;SDS011;6855;48.112;11.298;2022-09-09T08:02:22;4.00;;;1.03;;
13566;SDS011;6855;48.112;11.298;2022-09-09T08:04:50;3.63;;;1.13;;
13566;SDS011;6855;48.112;11.298;2022-09-09T08:07:17;3.33;;;1.30;;
13566;SDS011;6855;48.112;11.298;2022-09-09T08:09:46;5.23;;;2.10;;
13566;SDS011;6855;48.112;11.298;2022-09-09T08:12:14;6.73;;;1.73;;
13566;SDS011;6855;48.112;11.298;2022-09-09T08:14:41;2.70;;;1.43;;
13566;SDS011;6855;48.112;11.298;2022-09-09T08:17:08;5.43;;;1.33;;
13566;SDS011;6855;48.112;11.298;2022-09-09T08:19:37;3.10;;;1.20;;
13566;SDS011;6855;48.112;11.298;2022-09-09T08:22:04;3.03;;;1.20;;
13566;SDS011;6855;48.112;11.298;2022-09-09T08:24:32;5.80;;;1.70;;
13566;SDS011;6855;48.112;11.298;2022-09-09T08:27:00;2.80;;;1.17;;
13566;SDS011;6855;48.112;11.298;2022-09-09T08:29:27;3.67;;;1.50;;
13566;SDS011;6855;48.112;11.298;2022-09-09T08:31:55;2.50;;;1.10;;
13566;SDS011;6855;48.112;11.298;2022-09-09T08:34:22;1.97;;;1.27;;
13566;SDS011;6855;48.112;11.298;2022-09-09T08:36:52;3.30;;;1.27;;
13566;SDS011;6855;48.112;11.298;2022-09-09T08:39:20;2.73;;;0.90;;
13566;SDS011;6855;48.112;11.298;2022-09-09T08:44:49;3.27;;;1.30;;
13566;SDS011;6855;48.112;11.298;2022-09-09T08:47:23;1.70;;;0.90;;
13566;SDS011;6855;48.112;11.298;2022-09-09T08:50:06;1.40;;;0.90;;
13566;SDS011;6855;48.112;11.298;2022-09-09T08:52:43;4.90;;;1.77;;
13566;SDS011;6855;48.112;11.298;2022-09-09T08:55:15;2.73;;;1.00;;
13566;SDS011;6855;48.112;11.298;2022-09-09T08:57:47;3.43;;;1.60;;
13566;SDS011;6855;48.112;11.298;2022-09-09T09:00:15;1.73;;;1.00;;
13566;SDS011;6855;48.112;11.298;2022-09-09T09:02:42;1.27;;;1.10;;
13566;SDS011;6855;48.112;11.298;2022-09-09T09:05:15;3.17;;;1.13;;
13566;SDS011;6855;48.112;11.298;2022-09-09T09:07:50;1.33;;;1.20;;
13566;SDS011;6855;48.112;11.298;2022-09-09T09:10:21;3.13;;;1.10;;
13566;SDS011;6855;48.112;11.298;2022-09-09T09:12:51;2.23;;;1.13;;
13566;SDS011;6855;48.112;11.298;2022-09-09T09:15:21;1.10;;;0.97;;
13566;SDS011;6855;48.112;11.298;2022-09-09T09:17:49;2.23;;;1.30;;
13566;SDS011;6855;48.112;11.298;2022-09-09T09:20:18;1.27;;;1.00;;
13566;SDS011;6855;48.112;11.298;2022-09-09T09:22:47;1.13;;;0.87;;
13566;SDS011;6855;48.112;11.298;2022-09-09T09:25:18;2.43;;;1.07;;
13566;SDS011;6855;48.112;11.298;2022-09-09T09:27:49;1.70;;;1.10;;
13566;SDS011;6855;48.112;11.298;2022-09-09T09:30:18;5.47;;;1.20;;
13566;SDS011;6855;48.112;11.298;2022-09-09T09:32:49;9.50;;;1.20;;
13566;SDS011;6855;48.112;11.298;2022-09-09T09:35:18;2.03;;;1.10;;
13566;SDS011;6855;48.112;11.298;2022-09-09T09:37:45;3.47;;;1.23;;
13566;SDS011;6855;48.112;11.298;2022-09-09T09:40:13;2.97;;;1.27;;
13566;SDS011;6855;48.112;11.298;2022-09-09T09:42:48;1.60;;;1.37;;
13566;SDS011;6855;48.112;11.298;2022-09-09T09:45:16;2.03;;;1.40;;
13566;SDS011;6855;48.112;11.298;2022-09-09T09:47:57;1.53;;;1.10;;
13566;SDS011;6855;48.112;11.298;2022-09-09T09:50:24;1.00;;;0.80;;
13566;SDS011;6855;48.112;11.298;2022-09-09T09:52:55;7.70;;;1.33;;
13566;SDS011;6855;48.112;11.298;2022-09-09T09:55:22;5.17;;;1.50;;
13566;SDS011;6855;48.112;11.298;2022-09-09T09:57:51;3.57;;;1.00;;
13566;SDS011;6855;48.112;11.298;2022-09-09T10:00:20;2.00;;;0.97;;
13566;SDS011;6855;48.112;11.298;2022-09-09T10:02:50;3.83;;;1.10;;
13566;SDS011;6855;48.112;11.298;2022-09-09T10:05:23;1.57;;;0.90;;
13566;SDS011;6855;48.112;11.298;2022-09-09T10:08:01;1.73;;;0.90;;
13566;SDS011;6855;48.112;11.298;2022-09-09T10:10:32;2.97;;;0.80;;
13566;SDS011;6855;48.112;11.298;2022-09-09T10:13:03;1.10;;;1.00;;
13566;SDS011;6855;48.112;11.298;2022-09-09T10:15:37;1.00;;;0.90;;
13566;SDS011;6855;48.112;11.298;2022-09-09T10:18:12;5.83;;;1.00;;
13566;SDS011;6855;48.112;11.298;2022-09-09T10:20:43;4.67;;;1.03;;
13566;SDS011;6855;48.112;11.298;2022-09-09T10:23:18;1.30;;;0.93;;
13566;SDS011;6855;48.112;11.298;2022-09-09T10:25:53;4.10;;;1.23;;
13566;SDS011;6855;48.112;11.298;2022-09-09T10:28:33;1.83;;;0.70;;
13566;SDS011;6855;48.112;11.298;2022-09-09T10:31:08;4.33;;;1.00;;
13566;SDS011;6855;48.112;11.298;2022-09-09T10:33:41;2.73;;;1.20;;
13566;SDS011;6855;48.112;11.298;2022-09-09T10:36:12;3.50;;;0.80;;
13566;SDS011;6855;48.112;11.298;2022-09-09T10:38:44;1.10;;;0.83;;
13566;SDS011;6855;48.112;11.298;2022-09-09T10:41:19;1.90;;;0.90;;
13566;SDS011;6855;48.112;11.298;2022-09-09T10:44:00;1.20;;;1.10;;
13566;SDS011;6855;48.112;11.298;2022-09-09T10:46:31;2.40;;;0.90;;
13566;SDS011;6855;48.112;11.298;2022-09-09T10:49:07;0.83;;;0.70;;
13566;SDS011;6855;48.112;11.298;2022-09-09T10:51:40;1.53;;;1.03;;
13566;SDS011;6855;48.112;11.298;2022-09-09T10:54:18;2.30;;;0.83;;
13566;SDS011;6855;48.112;11.298;2022-09-09T10:56:49;3.20;;;0.93;;
13566;SDS011;6855;48.112;11.298;2022-09-09T10:59:20;1.83;;;1.00;;
13566;SDS011;6855;48.112;11.298;2022-09-09T11:01:51;1.77;;;0.80;;
13566;SDS011;6855;48.112;11.298;2022-09-09T11:04:21;4.27;;;1.03;;
13566;SDS011;6855;48.112;11.298;2022-09-09T11:06:49;1.13;;;0.97;;
13566;SDS011;6855;48.112;11.298;2022-09-09T11:09:19;1.10;;;0.70;;
13566;SDS011;6855;48.112;11.298;2022-09-09T11:11:49;3.20;;;1.20;;
13566;SDS011;6855;48.112;11.298;2022-09-09T11:14:23;1.87;;;1.17;;
13566;SDS011;6855;48.112;11.298;2022-09-09T11:16:55;2.27;;;0.87;;
13566;SDS011;6855;48.112;11.298;2022-09-09T11:19:26;0.90;;;0.90;;
13566;SDS011;6855;48.112;11.298;2022-09-09T11:21:55;1.40;;;0.87;;
13566;SDS011;6855;48.112;11.298;2022-09-09T11:24:23;1.63;;;0.87;;
13566;SDS011;6855;48.112;11.298;2022-09-09T11:26:54;0.90;;;0.80;;
13566;SDS011;6855;48.112;11.298;2022-09-09T11:29:30;0.80;;;0.73;;
13566;SDS011;6855;48.112;11.298;2022-09-09T11:32:07;1.30;;;0.90;;
13566;SDS011;6855;48.112;11.298;2022-09-09T11:34:42;1.20;;;0.90;;
13566;SDS011;6855;48.112;11.298;2022-09-09T11:37:21;1.83;;;0.90;;
13566;SDS011;6855;48.112;11.298;2022-09-09T11:42:36;1.73;;;0.93;;
13566;SDS011;6855;48.112;11.298;2022-09-09T11:45:18;1.43;;;0.90;;
13566;SDS011;6855;48.112;11.298;2022-09-09T11:47:51;1.53;;;0.80;;
13566;SDS011;6855;48.112;11.298;2022-09-09T11:50:27;2.07;;;0.90;;
13566;SDS011;6855;48.112;11.298;2022-09-09T11:53:03;2.30;;;0.90;;
13566;SDS011;6855;48.112;11.298;2022-09-09T11:55:31;1.73;;;0.83;;
13566;SDS011;6855;48.112;11.298;2022-09-09T11:57:58;1.63;;;0.90;;
13566;SDS011;6855;48.112;11.298;2022-09-09T12:00:34;1.57;;;0.87;;
13566;SDS011;6855;48.112;11.298;2022-09-09T12:03:10;1.27;;;0.87;;
13566;SDS011;6855;48.112;11.298;2022-09-09T12:05:57;0.97;;;0.80;;
13566;SDS011;6855;48.112;11.298;2022-09-09T12:08:26;2.30;;;0.90;;
13566;SDS011;6855;48.112;11.298;2022-09-09T12:10:54;2.30;;;1.03;;
13566;SDS011;6855;48.112;11.298;2022-09-09T12:13:23;2.10;;;0.90;;
13566;SDS011;6855;48.112;11.298;2022-09-09T12:15:52;2.80;;;0.90;;
13566;SDS011;6855;48.112;11.298;2022-09-09T12:18:21;0.90;;;0.60;;
13566;SDS011;6855;48.112;11.298;2022-09-09T12:20:52;1.73;;;0.90;;
13566;SDS011;6855;48.112;11.298;2022-09-09T12:23:27;0.83;;;0.83;;
13566;SDS011;6855;48.112;11.298;2022-09-09T12:26:03;1.67;;;0.90;;
13566;SDS011;6855;48.112;11.298;2022-09-09T12:28:39;1.93;;;1.07;;
13566;SDS011;6855;48.112;11.298;2022-09-09T12:31:10;2.60;;;1.00;;
13566;SDS011;6855;48.112;11.298;2022-09-09T12:33:42;1.40;;;0.83;;
13566;SDS011;6855;48.112;11.298;2022-09-09T12:36:12;2.87;;;1.10;;
13566;SDS011;6855;48.112;11.298;2022-09-09T12:38:41;1.30;;;0.77;;
13566;SDS011;6855;48.112;11.298;2022-09-09T12:41:16;6.53;;;1.13;;
13566;SDS011;6855;48.112;11.298;2022-09-09T12:43:45;1.70;;;0.83;;
13566;SDS011;6855;48.112;11.298;2022-09-09T12:46:16;3.50;;;1.00;;
13566;SDS011;6855;48.112;11.298;2022-09-09T12:48:46;3.03;;;0.90;;
13566;SDS011;6855;48.112;11.298;2022-09-09T12:51:17;4.03;;;1.23;;
13566;SDS011;6855;48.112;11.298;2022-09-09T12:53:45;1.77;;;0.77;;
13566;SDS011;6855;48.112;11.298;2022-09-09T12:56:18;4.97;;;1.13;;
13566;SDS011;6855;48.112;11.298;2022-09-09T12:58:47;3.40;;;0.83;;
13566;SDS011;6855;48.112;11.298;2022-09-09T13:01:20;2.37;;;0.90;;
13566;SDS011;6855;48.112;11.298;2022-09-09T13:03:48;3.27;;;0.97;;
13566;SDS011;6855;48.112;11.298;2022-09-09T13:06:19;1.10;;;0.80;;
13566;SDS011;6855;48.112;11.298;2022-09-09T13:08:47;3.67;;;0.80;;
13566;SDS011;6855;48.112;11.298;2022-09-09T13:11:16;2.40;;;1.13;;
13566;SDS011;6855;48.112;11.298;2022-09-09T13:13:49;2.07;;;0.87;;
13566;SDS011;6855;48.112;11.298;2022-09-09T13:16:19;1.90;;;0.70;;
13566;SDS011;6855;48.112;11.298;2022-09-09T13:18:47;2.03;;;0.77;;
13566;SDS011;6855;48.112;11.298;2022-09-09T13:21:14;2.17;;;1.30;;
13566;SDS011;6855;48.112;11.298;2022-09-09T13:23:41;4.93;;;1.10;;
13566;SDS011;6855;48.112;11.298;2022-09-09T13:26:19;1.93;;;0.70;;
13566;SDS011;6855;48.112;11.298;2022-09-09T13:28:47;1.57;;;0.87;;
13566;SDS011;6855;48.112;11.298;2022-09-09T13:31:21;1.87;;;0.83;;
13566;SDS011;6855;48.112;11.298;2022-09-09T13:33:48;2.77;;;0.80;;
13566;SDS011;6855;48.112;11.298;2022-09-09T13:36:18;4.80;;;0.97;;
13566;SDS011;6855;48.112;11.298;2022-09-09T13:38:54;2.10;;;0.77;;
13566;SDS011;6855;48.112;11.298;2022-09-09T13:41:24;2.03;;;0.93;;
13566;SDS011;6855;48.112;11.298;2022-09-09T13:43:52;7.63;;;1.10;;
13566;SDS011;6855;48.112;11.298;2022-09-09T13:46:24;1.87;;;1.13;;
13566;SDS011;6855;48.112;11.298;2022-09-09T13:48:56;2.20;;;0.90;;
13566;SDS011;6855;48.112;11.298;2022-09-09T13:51:28;2.50;;;0.80;;
13566;SDS011;6855;48.112;11.298;2022-09-09T13:53:56;2.60;;;0.90;;
13566;SDS011;6855;48.112;11.298;2022-09-09T13:56:25;2.60;;;0.80;;
13566;SDS011;6855;48.112;11.298;2022-09-09T13:58:52;2.50;;;0.90;;
13566;SDS011;6855;48.112;11.298;2022-09-09T14:01:19;2.90;;;0.93;;
13566;SDS011;6855;48.112;11.298;2022-09-09T14:03:49;3.40;;;1.00;;
13566;SDS011;6855;48.112;11.298;2022-09-09T14:06:18;1.80;;;0.80;;
13566;SDS011;6855;48.112;11.298;2022-09-09T14:08:46;1.37;;;1.00;;
13566;SDS011;6855;48.112;11.298;2022-09-09T14:11:14;3.50;;;0.93;;
13566;SDS011;6855;48.112;11.298;2022-09-09T14:13:41;1.80;;;0.90;;
13566;SDS011;6855;48.112;11.298;2022-09-09T14:16:08;2.10;;;1.10;;
13566;SDS011;6855;48.112;11.298;2022-09-09T14:18:35;2.80;;;0.80;;
13566;SDS011;6855;48.112;11.298;2022-09-09T14:21:05;2.30;;;0.80;;
13566;SDS011;6855;48.112;11.298;2022-09-09T14:23:33;1.13;;;0.80;;
13566;SDS011;6855;48.112;11.298;2022-09-09T14:26:01;1.73;;;0.80;;
13566;SDS011;6855;48.112;11.298;2022-09-09T14:28:28;1.10;;;0.63;;
13566;SDS011;6855;48.112;11.298;2022-09-09T14:30:58;1.80;;;0.83;;
13566;SDS011;6855;48.112;11.298;2022-09-09T14:33:26;6.30;;;1.03;;
13566;SDS011;6855;48.112;11.298;2022-09-09T14:35:55;2.40;;;0.70;;
13566;SDS011;6855;48.112;11.298;2022-09-09T14:38:28;1.13;;;0.70;;
13566;SDS011;6855;48.112;11.298;2022-09-09T14:40:58;4.83;;;1.00;;
13566;SDS011;6855;48.112;11.298;2022-09-09T14:43:28;2.00;;;0.80;;
13566;SDS011;6855;48.112;11.298;2022-09-09T14:45:57;3.23;;;0.80;;
13566;SDS011;6855;48.112;11.298;2022-09-09T14:48:25;0.80;;;0.80;;
13566;SDS011;6855;48.112;11.298;2022-09-09T14:50:52;2.03;;;1.03;;
13566;SDS011;6855;48.112;11.298;2022-09-09T14:53:20;1.53;;;0.87;;
13566;SDS011;6855;48.112;11.298;2022-09-09T14:55:48;3.43;;;0.80;;
13566;SDS011;6855;48.112;11.298;2022-09-09T14:58:16;1.30;;;1.10;;
13566;SDS011;6855;48.112;11.298;2022-09-09T15:00:43;2.90;;;0.90;;
13566;SDS011;6855;48.112;11.298;2022-09-09T15:03:10;3.23;;;1.57;;
13566;SDS011;6855;48.112;11.298;2022-09-09T15:05:37;6.23;;;1.00;;
13566;SDS011;6855;48.112;11.298;2022-09-09T15:08:04;2.10;;;0.90;;
13566;SDS011;6855;48.112;11.298;2022-09-09T15:10:32;1.10;;;0.60;;